Time;durP1;ratioP1;P1;durP2;ratioP2;P2;SDS_P1;SDS_P2;PMS_P1;PMS_P2;Temp;Humidity;BMP_temperature;BMP_pressure;BME280_temperature;BME280_humidity;BME280_pressure;Samples;Min_cycle;Max_cycle;Signal;HPM_P1;HPM_P2
2022/08/15 00:01:00;;;;;;;;;;;18.90;99.90;;;;;;5133547;27;19918;-81
2022/08/15 00:03:27;;;;;;;;;;;18.80;99.90;;;;;;5115444;27;19994;-85
2022/08/15 00:05:54;;;;;;;;;;;18.80;99.90;;;;;;5133282;27;20271;-84
2022/08/15 00:08:20;;;;;;;;;;;18.70;99.90;;;;;;5115615;27;20264;-84
2022/08/15 00:10:46;;;;;;;;;;;18.70;99.90;;;;;;5114301;27;19903;-84
2022/08/15 00:13:19;;;;;;;;;;;18.70;99.90;;;;;;5134041;27;19957;-85
2022/08/15 00:15:46;;;;;;;;;;;18.60;99.90;;;;;;5133428;27;19918;-85
2022/08/15 00:18:13;;;;;;;;;;;18.60;99.90;;;;;;5134712;27;19915;-88
2022/08/15 00:20:39;;;;;;;;;;;18.60;99.90;;;;;;5115499;27;20256;-86
2022/08/15 00:23:07;;;;;;;;;;;18.50;99.90;;;;;;5133957;27;19990;-85
2022/08/15 00:25:37;;;;;;;;;;;18.50;99.90;;;;;;5134490;27;19904;-85
2022/08/15 00:28:07;;;;;;;;;;;18.50;99.90;;;;;;5115757;27;19904;-83
2022/08/15 00:30:34;;;;;;;;;;;18.50;99.90;;;;;;5134333;27;19903;-81
2022/08/15 00:32:59;;;;;;;;;;;18.50;99.90;;;;;;5133410;27;19907;-78
2022/08/15 00:35:39;;;;;;;;;;;18.50;99.90;;;;;;5134269;27;19926;-78
2022/08/15 00:38:07;;;;;;;;;;;18.50;99.90;;;;;;5134033;27;19912;-77
2022/08/15 00:43:22;;;;;;;;;;;18.60;99.90;;;;;;5104218;27;19915;-77
2022/08/15 00:45:48;;;;;;;;;;;18.60;99.90;;;;;;5133161;27;19904;-76
2022/08/15 00:50:58;;;;;;;;;;;18.60;99.90;;;;;;5133568;27;19914;-76
2022/08/15 00:53:25;;;;;;;;;;;18.60;99.90;;;;;;5134339;27;19946;-76
2022/08/15 00:55:50;;;;;;;;;;;18.50;99.90;;;;;;5133087;28;19956;-76
2022/08/15 00:58:16;;;;;;;;;;;18.50;99.90;;;;;;5133927;28;19915;-76
2022/08/15 01:00:44;;;;;;;;;;;18.50;99.90;;;;;;5133399;28;19910;-75
2022/08/15 01:03:15;;;;;;;;;;;18.50;99.90;;;;;;5133464;28;19903;-76
2022/08/15 01:05:41;;;;;;;;;;;18.50;99.90;;;;;;5132987;28;20376;-76
2022/08/15 01:08:06;;;;;;;;;;;18.50;99.90;;;;;;5133591;28;19911;-76
2022/08/15 01:10:32;;;;;;;;;;;18.40;99.90;;;;;;5133558;28;20260;-75
2022/08/15 01:12:58;;;;;;;;;;;18.30;99.90;;;;;;5133490;28;19907;-75
2022/08/15 01:15:24;;;;;;;;;;;18.30;99.90;;;;;;5133465;28;19907;-75
2022/08/15 01:17:50;;;;;;;;;;;18.30;99.90;;;;;;5114494;28;19916;-75
2022/08/15 01:20:20;;;;;;;;;;;18.30;99.90;;;;;;5133727;28;20339;-75
2022/08/15 01:22:47;;;;;;;;;;;18.30;99.90;;;;;;5133048;28;19904;-75
2022/08/15 01:25:25;;;;;;;;;;;18.30;99.90;;;;;;5133677;28;19904;-75
2022/08/15 01:27:53;;;;;;;;;;;18.30;99.90;;;;;;5132718;28;19904;-76
2022/08/15 01:30:21;;;;;;;;;;;18.30;99.90;;;;;;5133607;28;19930;-76
2022/08/15 01:32:46;;;;;;;;;;;18.30;99.90;;;;;;5132901;28;19904;-75
2022/08/15 01:35:13;;;;;;;;;;;18.40;99.90;;;;;;5136498;27;19903;-75
2022/08/15 01:37:39;;;;;;;;;;;18.50;99.90;;;;;;5136915;27;19911;-75
2022/08/15 01:40:11;;;;;;;;;;;18.60;99.90;;;;;;5137204;27;19953;-76
2022/08/15 01:42:41;;;;;;;;;;;18.60;99.90;;;;;;5137231;27;19915;-77
2022/08/15 01:45:10;;;;;;;;;;;18.60;99.90;;;;;;5137381;27;19904;-75
2022/08/15 01:47:56;;;;;;;;;;;18.50;99.90;;;;;;5136755;27;20364;-75
2022/08/15 01:50:29;;;;;;;;;;;18.50;99.90;;;;;;5136220;27;19911;-75
2022/08/15 01:53:13;;;;;;;;;;;18.40;99.90;;;;;;5117920;27;19952;-75
2022/08/15 01:55:51;;;;;;;;;;;18.40;99.90;;;;;;5136148;27;19903;-75
2022/08/15 01:58:17;;;;;;;;;;;18.40;99.90;;;;;;5136874;27;19907;-75
2022/08/15 02:00:51;;;;;;;;;;;18.50;99.90;;;;;;5136521;27;19909;-75
2022/08/15 02:03:16;;;;;;;;;;;18.50;99.90;;;;;;5136994;27;19956;-76
2022/08/15 02:05:42;;;;;;;;;;;18.60;99.90;;;;;;5136117;27;19907;-76
2022/08/15 02:08:08;;;;;;;;;;;18.60;99.90;;;;;;5118570;27;19911;-76
2022/08/15 02:10:33;;;;;;;;;;;18.60;99.90;;;;;;5137247;27;20399;-74
2022/08/15 02:12:59;;;;;;;;;;;18.70;99.90;;;;;;5136215;27;20325;-75
2022/08/15 02:15:25;;;;;;;;;;;18.70;99.90;;;;;;5136444;27;19939;-75
2022/08/15 02:17:50;;;;;;;;;;;18.70;99.90;;;;;;5136115;27;19947;-75
2022/08/15 02:20:17;;;;;;;;;;;18.70;99.90;;;;;;5118028;27;19903;-75
2022/08/15 02:22:42;;;;;;;;;;;18.70;99.90;;;;;;5117580;27;19939;-75
2022/08/15 02:25:08;;;;;;;;;;;18.60;99.90;;;;;;5136850;27;19947;-75
2022/08/15 02:27:36;;;;;;;;;;;18.60;99.90;;;;;;5117965;27;19951;-75
2022/08/15 02:30:08;;;;;;;;;;;18.70;99.90;;;;;;5135588;27;19911;-74
2022/08/15 02:32:36;;;;;;;;;;;18.60;99.90;;;;;;5135868;27;19956;-75
2022/08/15 02:35:03;;;;;;;;;;;18.60;99.90;;;;;;5136108;27;20409;-75
2022/08/15 02:37:30;;;;;;;;;;;18.60;99.90;;;;;;5136365;27;19908;-75
2022/08/15 02:39:55;;;;;;;;;;;18.60;99.90;;;;;;5135759;27;19916;-75
2022/08/15 02:42:21;;;;;;;;;;;18.50;99.90;;;;;;5136296;27;20241;-76
2022/08/15 02:44:50;;;;;;;;;;;18.50;99.90;;;;;;5135740;27;19946;-75
2022/08/15 02:47:18;;;;;;;;;;;18.50;99.90;;;;;;5135200;27;19957;-75
2022/08/15 02:49:44;;;;;;;;;;;18.50;99.90;;;;;;5135346;27;20324;-75
2022/08/15 02:52:11;;;;;;;;;;;18.50;99.90;;;;;;5136126;27;19907;-75
2022/08/15 02:54:37;;;;;;;;;;;18.40;99.90;;;;;;5136008;27;19903;-75
2022/08/15 02:57:02;;;;;;;;;;;18.40;99.90;;;;;;5135718;27;19908;-75
2022/08/15 02:59:28;;;;;;;;;;;18.30;99.90;;;;;;5117555;27;19915;-75
2022/08/15 03:01:56;;;;;;;;;;;18.30;99.90;;;;;;5135336;27;20011;-75
2022/08/15 03:04:23;;;;;;;;;;;18.20;99.90;;;;;;5135819;27;20362;-76
2022/08/15 03:06:52;;;;;;;;;;;18.20;99.90;;;;;;5116840;27;19925;-75
2022/08/15 03:09:19;;;;;;;;;;;18.20;99.90;;;;;;5135748;27;19910;-75
2022/08/15 03:11:45;;;;;;;;;;;18.20;99.90;;;;;;5135168;27;19909;-76
2022/08/15 03:14:12;;;;;;;;;;;18.20;99.90;;;;;;5135559;27;19907;-76
2022/08/15 03:16:42;;;;;;;;;;;18.30;99.90;;;;;;5135280;27;19908;-76
2022/08/15 03:19:09;;;;;;;;;;;18.30;99.90;;;;;;5135620;27;20237;-74
2022/08/15 03:21:35;;;;;;;;;;;18.20;99.90;;;;;;5117182;27;19904;-76
2022/08/15 03:24:01;;;;;;;;;;;18.20;99.90;;;;;;5134999;27;19942;-75
2022/08/15 03:26:27;;;;;;;;;;;18.20;99.90;;;;;;5135520;27;19903;-75
2022/08/15 03:28:53;;;;;;;;;;;18.10;99.90;;;;;;5134416;27;20317;-75
2022/08/15 03:31:19;;;;;;;;;;;18.10;99.90;;;;;;5135358;27;19903;-75
2022/08/15 03:33:46;;;;;;;;;;;18.00;99.90;;;;;;5134643;27;20336;-74
2022/08/15 03:36:13;;;;;;;;;;;18.00;99.90;;;;;;5135175;27;20239;-75
2022/08/15 03:38:38;;;;;;;;;;;18.00;99.90;;;;;;5134815;27;19944;-75
2022/08/15 03:41:05;;;;;;;;;;;18.00;99.90;;;;;;5134551;27;20237;-74
2022/08/15 03:43:30;;;;;;;;;;;17.90;99.90;;;;;;5116601;27;20323;-75
2022/08/15 03:45:58;;;;;;;;;;;17.90;99.90;;;;;;5134430;27;19915;-75
2022/08/15 03:48:29;;;;;;;;;;;17.80;99.90;;;;;;5134588;27;20308;-75
2022/08/15 03:50:55;;;;;;;;;;;17.80;99.90;;;;;;5133992;27;19932;-75
2022/08/15 03:53:21;;;;;;;;;;;17.80;99.90;;;;;;5134450;27;19912;-75
2022/08/15 03:55:47;;;;;;;;;;;17.70;99.90;;;;;;5133974;27;19907;-75
2022/08/15 03:58:12;;;;;;;;;;;17.70;99.90;;;;;;5134822;27;19907;-75
2022/08/15 04:00:42;;;;;;;;;;;17.70;99.90;;;;;;5134131;27;19903;-73
2022/08/15 04:03:09;;;;;;;;;;;17.70;99.90;;;;;;5134708;27;20251;-74
2022/08/15 04:05:36;;;;;;;;;;;17.80;99.90;;;;;;5134390;27;19904;-75
2022/08/15 04:08:05;;;;;;;;;;;17.70;99.90;;;;;;5115675;27;19903;-74
2022/08/15 04:10:31;;;;;;;;;;;17.80;99.90;;;;;;5134210;27;20241;-75
2022/08/15 04:12:57;;;;;;;;;;;17.80;99.90;;;;;;5133747;27;19918;-75
2022/08/15 04:15:23;;;;;;;;;;;17.70;99.90;;;;;;5134511;27;19904;-75
2022/08/15 04:17:51;;;;;;;;;;;17.70;99.90;;;;;;5133739;27;19907;-76
2022/08/15 04:20:17;;;;;;;;;;;17.70;99.90;;;;;;5134189;27;19908;-75
2022/08/15 04:22:47;;;;;;;;;;;17.70;99.90;;;;;;5133777;27;19982;-76
2022/08/15 04:25:16;;;;;;;;;;;17.70;99.90;;;;;;5134218;27;19903;-76
2022/08/15 04:27:42;;;;;;;;;;;17.70;99.90;;;;;;5133495;27;20244;-75
2022/08/15 04:30:08;;;;;;;;;;;17.70;99.90;;;;;;5134068;27;19947;-75
2022/08/15 04:32:34;;;;;;;;;;;17.70;99.90;;;;;;5134070;27;19904;-76
2022/08/15 04:35:00;;;;;;;;;;;17.70;99.90;;;;;;5133287;27;20006;-75
2022/08/15 04:37:26;;;;;;;;;;;17.70;99.90;;;;;;5115718;27;19914;-75
2022/08/15 04:39:53;;;;;;;;;;;17.80;99.90;;;;;;5133500;27;19908;-75
2022/08/15 04:42:19;;;;;;;;;;;17.80;99.90;;;;;;5133528;27;20383;-75
2022/08/15 04:44:48;;;;;;;;;;;17.80;99.90;;;;;;5133321;27;19957;-74
2022/08/15 04:47:16;;;;;;;;;;;17.70;99.90;;;;;;5133287;27;20447;-75
2022/08/15 04:49:42;;;;;;;;;;;17.70;99.90;;;;;;5133287;27;20244;-75
2022/08/15 04:52:08;;;;;;;;;;;17.70;99.90;;;;;;5134352;27;19903;-75
2022/08/15 04:54:34;;;;;;;;;;;17.70;99.90;;;;;;5134028;27;19903;-76
2022/08/15 04:56:59;;;;;;;;;;;17.70;99.90;;;;;;5115157;28;19922;-77
2022/08/15 04:59:25;;;;;;;;;;;17.70;99.90;;;;;;5115472;28;19907;-77
2022/08/15 05:01:51;;;;;;;;;;;17.70;99.90;;;;;;5114704;28;20332;-77
2022/08/15 05:04:16;;;;;;;;;;;17.70;99.90;;;;;;5133772;28;19904;-77
2022/08/15 05:06:42;;;;;;;;;;;17.70;99.90;;;;;;5133287;28;19928;-77
2022/08/15 05:09:07;;;;;;;;;;;17.70;99.90;;;;;;5134749;27;20356;-78
2022/08/15 05:11:33;;;;;;;;;;;17.80;99.90;;;;;;5138020;27;19973;-78
2022/08/15 05:13:58;;;;;;;;;;;17.80;99.90;;;;;;5137713;27;20017;-80
2022/08/15 05:16:25;;;;;;;;;;;17.70;99.90;;;;;;5137910;27;19915;-84
2022/08/15 05:18:50;;;;;;;;;;;17.70;99.90;;;;;;5137135;27;19911;-80
2022/08/15 05:21:16;;;;;;;;;;;17.70;99.90;;;;;;5138119;27;20336;-77
2022/08/15 05:23:42;;;;;;;;;;;17.70;99.90;;;;;;5136952;27;20256;-77
2022/08/15 05:26:09;;;;;;;;;;;17.70;99.90;;;;;;5137278;27;20357;-77
2022/08/15 05:28:35;;;;;;;;;;;17.70;99.90;;;;;;5137614;27;20009;-76
2022/08/15 05:31:02;;;;;;;;;;;17.70;99.90;;;;;;5137009;27;19947;-75
2022/08/15 05:33:29;;;;;;;;;;;17.70;99.90;;;;;;5137594;27;19908;-76
2022/08/15 05:35:56;;;;;;;;;;;17.70;99.90;;;;;;5136594;27;20363;-76
2022/08/15 05:38:27;;;;;;;;;;;17.70;99.90;;;;;;5137468;27;19907;-77
2022/08/15 05:41:01;;;;;;;;;;;17.70;99.90;;;;;;5136843;27;20392;-77
2022/08/15 05:43:27;;;;;;;;;;;17.70;99.90;;;;;;5137524;27;19915;-78
2022/08/15 05:45:58;;;;;;;;;;;17.70;99.90;;;;;;5136556;27;19936;-78
2022/08/15 05:48:29;;;;;;;;;;;17.70;99.90;;;;;;5136984;27;19910;-78
2022/08/15 05:51:30;;;;;;;;;;;17.70;99.90;;;;;;5136486;27;19904;-77
2022/08/15 05:53:56;;;;;;;;;;;17.70;99.90;;;;;;5033152;28;19909;-77
2022/08/15 05:56:48;;;;;;;;;;;17.60;99.90;;;;;;5115436;27;20009;-77
2022/08/15 05:59:15;;;;;;;;;;;17.60;99.90;;;;;;5131787;27;20274;-76
2022/08/15 06:01:44;;;;;;;;;;;17.60;99.90;;;;;;5136095;27;20288;-76
2022/08/15 06:04:15;;;;;;;;;;;17.60;99.90;;;;;;5136908;27;19997;-76
2022/08/15 06:06:42;;;;;;;;;;;17.60;99.90;;;;;;5136435;27;19959;-79
2022/08/15 06:09:26;;;;;;;;;;;17.60;99.90;;;;;;5136559;27;20376;-78
2022/08/15 06:11:55;;;;;;;;;;;17.60;99.90;;;;;;5136254;27;19992;-77
2022/08/15 06:14:33;;;;;;;;;;;17.60;99.90;;;;;;5136799;27;19914;-77
2022/08/15 06:17:02;;;;;;;;;;;17.60;99.90;;;;;;5136106;27;19918;-78
2022/08/15 06:19:29;;;;;;;;;;;17.60;99.90;;;;;;5136354;27;20352;-78
2022/08/15 06:22:14;;;;;;;;;;;17.60;99.90;;;;;;5134789;27;19904;-78
2022/08/15 06:24:54;;;;;;;;;;;17.60;99.90;;;;;;5135976;27;20360;-78
2022/08/15 06:27:31;;;;;;;;;;;17.60;99.90;;;;;;5136291;27;20241;-78
2022/08/15 06:30:06;;;;;;;;;;;17.70;99.90;;;;;;5135781;27;19962;-78
2022/08/15 06:32:45;;;;;;;;;;;17.70;99.90;;;;;;5135873;27;19903;-79
2022/08/15 06:35:15;;;;;;;;;;;17.60;99.90;;;;;;5136590;27;19908;-77
2022/08/15 06:37:53;;;;;;;;;;;17.60;99.90;;;;;;5135479;27;20436;-77
2022/08/15 06:40:31;;;;;;;;;;;17.60;99.90;;;;;;5136108;27;19914;-77
2022/08/15 06:42:57;;;;;;;;;;;17.70;99.90;;;;;;5135282;27;20422;-77
2022/08/15 06:45:36;;;;;;;;;;;17.70;99.90;;;;;;5136032;27;19907;-78
2022/08/15 06:48:07;;;;;;;;;;;17.70;99.90;;;;;;5135282;27;19965;-79
2022/08/15 06:51:02;;;;;;;;;;;17.70;99.90;;;;;;5136034;27;19903;-80
2022/08/15 06:53:33;;;;;;;;;;;17.70;99.90;;;;;;5113653;27;19927;-78
2022/08/15 06:56:17;;;;;;;;;;;17.70;99.90;;;;;;5135157;27;20040;-78
2022/08/15 06:58:49;;;;;;;;;;;17.80;99.90;;;;;;5135503;27;19907;-77
2022/08/15 07:01:20;;;;;;;;;;;17.70;99.90;;;;;;5135590;27;19908;-77
2022/08/15 07:03:51;;;;;;;;;;;17.80;99.90;;;;;;5135127;27;19904;-77
2022/08/15 07:06:20;;;;;;;;;;;17.90;99.90;;;;;;5135568;27;20260;-76
2022/08/15 07:08:46;;;;;;;;;;;17.80;99.90;;;;;;5135092;27;19904;-76
2022/08/15 07:11:14;;;;;;;;;;;17.90;99.90;;;;;;5135599;27;19911;-76
2022/08/15 07:13:58;;;;;;;;;;;18.00;99.90;;;;;;5134750;27;20332;-76
2022/08/15 07:16:30;;;;;;;;;;;18.10;99.90;;;;;;5135282;27;20308;-76
2022/08/15 07:18:58;;;;;;;;;;;18.20;99.90;;;;;;5134558;27;20360;-76
2022/08/15 07:21:25;;;;;;;;;;;18.30;99.90;;;;;;5135229;27;19903;-76
2022/08/15 07:24:13;;;;;;;;;;;18.30;99.90;;;;;;5134828;27;20352;-76
2022/08/15 07:26:48;;;;;;;;;;;18.40;99.90;;;;;;5121214;27;19909;-76
2022/08/15 07:29:25;;;;;;;;;;;18.30;99.90;;;;;;5135068;27;19987;-76
2022/08/15 07:31:51;;;;;;;;;;;18.40;99.90;;;;;;5134436;27;19907;-75
2022/08/15 07:34:18;;;;;;;;;;;18.40;99.90;;;;;;5135124;27;19910;-76
2022/08/15 07:36:55;;;;;;;;;;;18.40;99.90;;;;;;5116150;27;19907;-76
2022/08/15 07:39:25;;;;;;;;;;;18.50;99.90;;;;;;5135554;27;19911;-78
2022/08/15 07:41:50;;;;;;;;;;;18.50;99.90;;;;;;5134313;27;19919;-78
2022/08/15 07:44:27;;;;;;;;;;;18.60;99.90;;;;;;5117032;27;19955;-76
2022/08/15 07:46:57;;;;;;;;;;;18.60;99.90;;;;;;5134465;27;20325;-76
2022/08/15 07:49:34;;;;;;;;;;;18.70;99.90;;;;;;5134890;27;19904;-76
2022/08/15 07:52:17;;;;;;;;;;;18.60;99.90;;;;;;5134542;27;19921;-76
2022/08/15 07:54:45;;;;;;;;;;;18.80;99.90;;;;;;5134421;27;19911;-77
2022/08/15 07:57:20;;;;;;;;;;;18.80;99.90;;;;;;5134853;27;19911;-76
2022/08/15 08:00:03;;;;;;;;;;;18.70;99.90;;;;;;5133776;27;20383;-75
2022/08/15 08:02:33;;;;;;;;;;;18.70;99.90;;;;;;5134222;27;20305;-77
2022/08/15 08:05:00;;;;;;;;;;;18.70;99.90;;;;;;5134012;27;19914;-76
2022/08/15 08:07:34;;;;;;;;;;;18.70;99.90;;;;;;5135901;27;19904;-76
2022/08/15 08:10:00;;;;;;;;;;;18.80;99.90;;;;;;5134820;27;19919;-76
2022/08/15 08:12:26;;;;;;;;;;;18.90;99.90;;;;;;5117717;27;19903;-77
2022/08/15 08:15:02;;;;;;;;;;;18.90;99.90;;;;;;5115487;27;19988;-76
2022/08/15 08:17:48;;;;;;;;;;;18.90;99.90;;;;;;5134252;27;19907;-76
2022/08/15 08:20:32;;;;;;;;;;;19.10;99.90;;;;;;5133882;27;20012;-75
2022/08/15 08:23:04;;;;;;;;;;;19.20;99.90;;;;;;5133357;27;19907;-75
2022/08/15 08:25:35;;;;;;;;;;;19.40;99.90;;;;;;5134240;27;19910;-75
2022/08/15 08:28:11;;;;;;;;;;;19.40;99.90;;;;;;5133723;27;19907;-75
2022/08/15 08:30:50;;;;;;;;;;;19.50;99.90;;;;;;5134316;27;19926;-75
2022/08/15 08:33:19;;;;;;;;;;;19.50;99.90;;;;;;5134057;27;20249;-76
2022/08/15 08:36:04;;;;;;;;;;;19.50;99.90;;;;;;5132890;27;19908;-75
2022/08/15 08:38:48;;;;;;;;;;;19.40;99.90;;;;;;5133823;27;20271;-75
2022/08/15 08:41:28;;;;;;;;;;;19.40;99.90;;;;;;5133156;27;19924;-74
2022/08/15 08:44:14;;;;;;;;;;;19.40;99.90;;;;;;5132062;27;19903;-75
2022/08/15 08:47:18;;;;;;;;;;;19.40;99.90;;;;;;5133525;27;19956;-74
2022/08/15 08:50:02;;;;;;;;;;;19.30;99.90;;;;;;5029626;28;20346;-76
2022/08/15 08:52:28;;;;;;;;;;;19.40;99.90;;;;;;5030556;28;19905;-75
2022/08/15 08:55:02;;;;;;;;;;;19.50;99.90;;;;;;5073522;28;20260;-75
2022/08/15 08:57:32;;;;;;;;;;;19.70;99.90;;;;;;5133505;27;19907;-75
2022/08/15 09:00:05;;;;;;;;;;;19.80;99.90;;;;;;5133158;28;20557;-76
2022/08/15 09:02:35;;;;;;;;;;;20.00;99.90;;;;;;5133424;28;19964;-76
2022/08/15 09:05:07;;;;;;;;;;;20.20;99.90;;;;;;5114719;28;19915;-76
2022/08/15 09:07:34;;;;;;;;;;;20.40;99.90;;;;;;5133609;28;19947;-76
2022/08/15 09:10:01;;;;;;;;;;;20.50;99.90;;;;;;5133317;28;19911;-76
2022/08/15 09:15:21;;;;;;;;;;;20.70;99.90;;;;;;5133960;28;19938;-76
2022/08/15 09:17:59;;;;;;;;;;;20.60;99.90;;;;;;5133025;28;20348;-76
2022/08/15 09:20:27;;;;;;;;;;;20.60;99.90;;;;;;5115487;28;19997;-77
2022/08/15 09:22:53;;;;;;;;;;;20.70;99.90;;;;;;5132886;28;20374;-77
2022/08/15 09:25:19;;;;;;;;;;;20.80;99.90;;;;;;5114794;28;19903;-77
2022/08/15 09:27:55;;;;;;;;;;;21.00;99.90;;;;;;5133010;28;19942;-77
2022/08/15 09:30:21;;;;;;;;;;;21.10;99.90;;;;;;5116917;28;20348;-75
2022/08/15 09:33:00;;;;;;;;;;;21.20;99.90;;;;;;5115780;28;19903;-76
2022/08/15 09:35:32;;;;;;;;;;;21.30;99.90;;;;;;5116688;28;19903;-77
2022/08/15 09:37:58;;;;;;;;;;;21.30;99.90;;;;;;5134282;28;19916;-76
2022/08/15 09:40:41;;;;;;;;;;;21.30;99.90;;;;;;5117053;28;19956;-76
2022/08/15 09:43:27;;;;;;;;;;;21.20;99.90;;;;;;5135330;28;19969;-76
2022/08/15 09:45:59;;;;;;;;;;;21.30;99.90;;;;;;5116592;28;19911;-77
2022/08/15 09:48:28;;;;;;;;;;;21.50;99.90;;;;;;5116212;28;19907;-76
2022/08/15 09:51:11;;;;;;;;;;;21.60;99.90;;;;;;5133450;28;19904;-77
2022/08/15 09:53:48;;;;;;;;;;;21.60;99.90;;;;;;5133725;28;20310;-77
2022/08/15 09:56:18;;;;;;;;;;;21.70;99.90;;;;;;5136292;27;19907;-76
2022/08/15 09:58:57;;;;;;;;;;;21.70;99.90;;;;;;5137972;27;19960;-76
2022/08/15 10:01:30;;;;;;;;;;;21.80;99.90;;;;;;5120579;27;19948;-77
2022/08/15 10:03:58;;;;;;;;;;;22.00;99.90;;;;;;5137489;27;19910;-75
2022/08/15 10:06:23;;;;;;;;;;;22.10;99.90;;;;;;5138742;27;19910;-75
2022/08/15 10:08:55;;;;;;;;;;;22.30;99.90;;;;;;5119447;27;19904;-75
2022/08/15 10:11:38;;;;;;;;;;;22.40;99.90;;;;;;5119700;27;19939;-76
2022/08/15 10:14:06;;;;;;;;;;;22.40;99.90;;;;;;5137657;27;19910;-76
2022/08/15 10:16:41;;;;;;;;;;;22.60;99.90;;;;;;5136429;27;19907;-76
2022/08/15 10:19:25;;;;;;;;;;;22.70;99.90;;;;;;5136381;27;19908;-75
2022/08/15 10:21:51;;;;;;;;;;;22.80;99.90;;;;;;5135835;27;19916;-76
2022/08/15 10:24:26;;;;;;;;;;;22.80;99.90;;;;;;5117961;27;19910;-76
2022/08/15 10:27:08;;;;;;;;;;;22.90;99.90;;;;;;5135357;27;20367;-77
2022/08/15 10:29:47;;;;;;;;;;;22.90;99.90;;;;;;5135998;27;20300;-77
2022/08/15 10:32:22;;;;;;;;;;;23.00;99.90;;;;;;5136902;27;19910;-77
2022/08/15 10:34:56;;;;;;;;;;;23.10;99.90;;;;;;5135174;27;20355;-77
2022/08/15 10:37:22;;;;;;;;;;;23.10;99.90;;;;;;5136213;27;19952;-76
2022/08/15 10:39:53;;;;;;;;;;;23.10;99.90;;;;;;5135003;27;20306;-77
2022/08/15 10:42:31;;;;;;;;;;;23.20;99.90;;;;;;5136335;27;19915;-76
2022/08/15 10:45:11;;;;;;;;;;;23.20;99.90;;;;;;5135569;27;19908;-76
2022/08/15 10:47:55;;;;;;;;;;;22.90;99.90;;;;;;5135777;27;20283;-76
2022/08/15 10:50:35;;;;;;;;;;;22.90;99.90;;;;;;5135444;27;19961;-76
2022/08/15 10:53:13;;;;;;;;;;;22.80;99.90;;;;;;5135211;27;19911;-76
2022/08/15 10:55:40;;;;;;;;;;;22.70;99.90;;;;;;5135543;27;19904;-76
2022/08/15 10:58:32;;;;;;;;;;;22.60;99.90;;;;;;5135576;27;19914;-76
2022/08/15 11:01:04;;;;;;;;;;;22.50;99.90;;;;;;5130266;27;19938;-77
2022/08/15 11:03:38;;;;;;;;;;;22.30;99.90;;;;;;5135650;27;19950;-77
2022/08/15 11:06:06;;;;;;;;;;;22.20;99.90;;;;;;5135442;27;19903;-77
2022/08/15 11:08:31;;;;;;;;;;;22.10;99.90;;;;;;5134769;27;20321;-77
2022/08/15 11:11:04;;;;;;;;;;;22.10;99.90;;;;;;5135157;27;19904;-76
2022/08/15 11:13:31;;;;;;;;;;;22.00;99.90;;;;;;5135704;27;19911;-76
2022/08/15 11:16:06;;;;;;;;;;;22.00;99.90;;;;;;5134892;27;20271;-77
2022/08/15 11:18:36;;;;;;;;;;;22.00;99.90;;;;;;5135897;27;19916;-75
2022/08/15 11:21:21;;;;;;;;;;;21.90;99.90;;;;;;5134401;27;20003;-75
2022/08/15 11:23:52;;;;;;;;;;;21.90;99.90;;;;;;5134703;27;19912;-76
2022/08/15 11:26:21;;;;;;;;;;;21.70;99.90;;;;;;5134884;27;19938;-76
2022/08/15 11:28:48;;;;;;;;;;;21.60;99.90;;;;;;5134500;27;19904;-75
2022/08/15 11:31:18;;;;;;;;;;;21.60;99.90;;;;;;5134891;27;19903;-75
2022/08/15 11:33:46;;;;;;;;;;;21.50;99.90;;;;;;5134313;27;19993;-75
2022/08/15 11:36:15;;;;;;;;;;;21.50;99.90;;;;;;5135097;27;19973;-75
2022/08/15 11:38:49;;;;;;;;;;;21.40;99.90;;;;;;5134502;27;19918;-75
2022/08/15 11:41:22;;;;;;;;;;;21.40;99.90;;;;;;5134641;27;19916;-75
2022/08/15 11:43:48;;;;;;;;;;;21.40;99.90;;;;;;5134246;27;19910;-76
2022/08/15 11:46:16;;;;;;;;;;;21.30;99.90;;;;;;5134888;27;20048;-75
2022/08/15 11:48:46;;;;;;;;;;;21.30;99.90;;;;;;5134023;27;19910;-75
2022/08/15 11:51:14;;;;;;;;;;;21.30;99.90;;;;;;5134552;27;19903;-74
2022/08/15 11:53:42;;;;;;;;;;;21.40;99.90;;;;;;5134203;27;19903;-76
2022/08/15 11:56:08;;;;;;;;;;;21.20;99.90;;;;;;5116298;27;19903;-76
2022/08/15 11:58:35;;;;;;;;;;;21.10;99.90;;;;;;5134618;27;19907;-78
2022/08/15 12:01:19;;;;;;;;;;;21.00;99.90;;;;;;5134026;27;20443;-77
2022/08/15 12:03:57;;;;;;;;;;;20.90;99.90;;;;;;5134026;27;20330;-76
2022/08/15 12:06:28;;;;;;;;;;;20.70;99.90;;;;;;5134409;27;20438;-76
2022/08/15 12:08:53;;;;;;;;;;;20.70;99.90;;;;;;5115491;27;20301;-77
2022/08/15 12:11:22;;;;;;;;;;;20.40;99.90;;;;;;5116207;27;19903;-78
2022/08/15 12:14:11;;;;;;;;;;;20.10;99.90;;;;;;5133915;27;19903;-75
2022/08/15 12:16:48;;;;;;;;;;;19.80;99.90;;;;;;5116041;27;19907;-77
2022/08/15 12:19:28;;;;;;;;;;;19.70;99.90;;;;;;5132944;27;20360;-77
2022/08/15 12:21:56;;;;;;;;;;;19.60;99.90;;;;;;5133776;27;19904;-76
2022/08/15 12:24:26;;;;;;;;;;;19.60;99.90;;;;;;5134539;27;20486;-76
2022/08/15 12:26:55;;;;;;;;;;;19.70;99.90;;;;;;5133189;27;20352;-76
2022/08/15 12:29:22;;;;;;;;;;;19.60;99.90;;;;;;5134398;27;19907;-76
2022/08/15 12:31:49;;;;;;;;;;;19.60;99.90;;;;;;5133233;27;19903;-76
2022/08/15 12:34:23;;;;;;;;;;;19.60;99.90;;;;;;5134090;27;19903;-76
2022/08/15 12:36:49;;;;;;;;;;;19.80;99.90;;;;;;5133611;27;19952;-76
2022/08/15 12:39:16;;;;;;;;;;;20.00;99.90;;;;;;5134139;27;20302;-76
2022/08/15 12:41:42;;;;;;;;;;;20.30;99.90;;;;;;5114732;27;19971;-76
2022/08/15 12:44:18;;;;;;;;;;;20.40;99.90;;;;;;5134093;27;20256;-76
2022/08/15 12:46:44;;;;;;;;;;;20.60;99.90;;;;;;5133203;27;20435;-76
2022/08/15 12:49:09;;;;;;;;;;;20.70;99.90;;;;;;5134292;27;19954;-76
2022/08/15 12:51:35;;;;;;;;;;;20.70;99.90;;;;;;5133943;27;19910;-76
2022/08/15 12:54:00;;;;;;;;;;;20.80;99.90;;;;;;5114837;27;20570;-76
2022/08/15 12:56:26;;;;;;;;;;;20.90;99.90;;;;;;5134097;27;19907;-76
2022/08/15 12:58:52;;;;;;;;;;;20.80;99.90;;;;;;5133249;27;20454;-76
2022/08/15 13:01:17;;;;;;;;;;;20.80;99.90;;;;;;5133691;27;19904;-75
2022/08/15 13:03:44;;;;;;;;;;;20.80;99.90;;;;;;5133071;28;19903;-76
2022/08/15 13:06:20;;;;;;;;;;;20.70;99.90;;;;;;5133607;28;20316;-76
2022/08/15 13:08:46;;;;;;;;;;;20.70;99.90;;;;;;5133155;28;19904;-76
2022/08/15 13:11:12;;;;;;;;;;;20.80;99.90;;;;;;5133786;28;20251;-76
2022/08/15 13:13:38;;;;;;;;;;;20.90;99.90;;;;;;5133783;28;19907;-76
2022/08/15 13:16:09;;;;;;;;;;;21.00;99.90;;;;;;5132933;28;20036;-76
2022/08/15 13:18:36;;;;;;;;;;;20.90;99.90;;;;;;5133702;28;19908;-76
2022/08/15 13:23:51;;;;;;;;;;;21.00;99.90;;;;;;5132832;28;19910;-76
2022/08/15 13:26:17;;;;;;;;;;;21.00;99.90;;;;;;5114899;28;19903;-76
2022/08/15 13:28:44;;;;;;;;;;;21.10;99.90;;;;;;5133047;28;19910;-76
2022/08/15 13:31:10;;;;;;;;;;;21.20;99.90;;;;;;5135842;27;19903;-76
2022/08/15 13:33:37;;;;;;;;;;;21.30;99.90;;;;;;5137562;27;19958;-74
2022/08/15 13:36:04;;;;;;;;;;;21.40;99.90;;;;;;5136853;27;19903;-75
2022/08/15 13:38:29;;;;;;;;;;;21.60;99.90;;;;;;5119245;27;19983;-75
2022/08/15 13:40:55;;;;;;;;;;;21.50;99.90;;;;;;5136763;27;19916;-75
2022/08/15 13:43:21;;;;;;;;;;;21.50;99.90;;;;;;5137195;27;19907;-76
2022/08/15 13:45:47;;;;;;;;;;;21.60;99.90;;;;;;5136008;27;19934;-75
2022/08/15 13:48:16;;;;;;;;;;;21.70;99.90;;;;;;5136451;27;20302;-76
2022/08/15 13:50:45;;;;;;;;;;;21.80;99.90;;;;;;5136293;27;19911;-76
2022/08/15 13:53:11;;;;;;;;;;;21.80;99.90;;;;;;5137073;27;19910;-76
2022/08/15 13:55:36;;;;;;;;;;;21.90;99.90;;;;;;5118531;27;19903;-76
2022/08/15 13:58:02;;;;;;;;;;;22.00;99.90;;;;;;5135982;27;20370;-76
2022/08/15 14:00:28;;;;;;;;;;;22.00;99.90;;;;;;5118596;27;19918;-76
2022/08/15 14:02:53;;;;;;;;;;;22.00;99.90;;;;;;5136117;27;19912;-76
2022/08/15 14:05:19;;;;;;;;;;;22.10;99.90;;;;;;5136813;27;19904;-76
2022/08/15 14:07:46;;;;;;;;;;;22.20;99.90;;;;;;5135847;27;20343;-76
2022/08/15 14:10:16;;;;;;;;;;;22.20;99.90;;;;;;5136428;27;19903;-75
2022/08/15 14:12:43;;;;;;;;;;;22.30;99.90;;;;;;5135819;27;19909;-76
2022/08/15 14:15:11;;;;;;;;;;;22.50;99.90;;;;;;5118173;27;20319;-76
2022/08/15 14:17:37;;;;;;;;;;;22.80;99.90;;;;;;5136262;27;20359;-76
2022/08/15 14:20:06;;;;;;;;;;;22.90;99.90;;;;;;5135561;27;19908;-75
2022/08/15 14:22:31;;;;;;;;;;;23.00;99.90;;;;;;5136511;27;19999;-76
2022/08/15 14:24:58;;;;;;;;;;;23.00;99.90;;;;;;5136005;27;19972;-76
2022/08/15 14:27:26;;;;;;;;;;;22.90;99.90;;;;;;5136173;27;19903;-76
2022/08/15 14:29:52;;;;;;;;;;;22.90;99.90;;;;;;5135624;27;19904;-76
2022/08/15 14:32:19;;;;;;;;;;;22.90;99.90;;;;;;5136275;27;19915;-76
2022/08/15 14:34:45;;;;;;;;;;;23.10;99.90;;;;;;5135820;27;20326;-76
2022/08/15 14:37:14;;;;;;;;;;;23.10;99.90;;;;;;5136346;27;19965;-75
2022/08/15 14:39:40;;;;;;;;;;;23.10;99.90;;;;;;5135950;27;19907;-76
2022/08/15 14:42:06;;;;;;;;;;;23.10;99.90;;;;;;5134549;27;20003;-75
2022/08/15 14:44:32;;;;;;;;;;;22.90;99.90;;;;;;5136145;27;19907;-76